Ambridge, Pennsylvania
Current Conditions -  °F | °C
As of 7:51 PM on Monday 20 Oct 2014 (Local Time) from KPIT Reporting Station
Overcast Overcast  
Wind Chill: 54°   Ceiling: 8000
Heat Index: 54°   Visibility: 10mi
Dew Point: 42°   Wind: 5mph
Humidity: 64%   Direction: 190°S
Pressure: 29.88"   Gusts: NA
Location:  40.59°N, 80.23°W
Report Text: KPIT 202351Z 19004KT 10SM FEW065 BKN080 OVC100 12/06 A2988 RMK AO2 SLP128 T01220056 10139 20122 50000
Loading
Personal Weather Stations






























Interactive Weather Map
Tropical Storm Tracking
New forecast layout! Learn more

10-Day Weather Forecast

Advertisements
Track Severe Weather on mobile